Eagle County Regional Airport
KEGE : now visible

Airfield :











YOU CAN JOIN US ON...

 
LOGIN :

Register | Disclaimer

   EN    FR    IT 

 









Legend :    VFR   Marginal VFR   IFR   Intensive IFR   Very Intensive IFR
Visi :
Ceiling :
>= 8 km
>= 3000ft
5 to 8 km
1000 to 3000 ft
1500m to 5 km
500 to 1000 ft
800 to 1500m
200 to 500 ft
< 800m
< 200 ft
Symbols :   Thunderstorms  Fog  Heavy snow  Heavy precipitations  Wind > 20 kt






- Airport Elevation : 6548 ft
- IATA code : EGE


KEGE - Eagle County Regional

CURRENT METAR :
  • 041856Z 00000KT 10SM CLR 28/05 A3024 RMK AO2 SLP162 T02780050 PNO $

EXPIRED METARs :
  • 041814Z VRB03KT 10SM FEW004 27/06 A3025 RMK AO2 PNO $
  • 041756Z VRB03KT 10SM CLR 26/05 A3026 RMK AO2 SLP171 6//// T02610050 10261 20122 58013 PNO $
  • 041656Z 29005KT 10SM CLR 22/06 A3027 RMK AO2 SLP184 T02170056 PNO $

TAF KEGE
Valid from the 04 at 18:00 until the 05 at 18:00 UTC


041735Z 0418/0518 26007KT P6SM FEW100 SCT120
FM050000 29009KT P6SM FEW120 SCT250
FM050300 13005KT P6SM FEW120 FEW250
FM051700 24005KT P6SM SKC
KZDV FIR / North America



MET'MAP, your aeronautical weather chart ! - Copyright ORBIFLY December 2007 - Disclaimer

ORBIFLY MET'MAP TEAM :

Programming & Development : Alexandra Zaïnal
Concept & original design : Baudouin d'Aumeries
Assistance for programming : Marc-Olivier Méhu
Technical & hardware support : Manuel Goepfert

Contact : metmap@orbifly.com




SOURCES & CREDITS :

   NOAA       Earth
Advisory